Terminal Aerodrome Forecast
Issued by NWS Upton, NY

Current Version | Previous Version | Text Only | Print | Product List | Glossary On
Versions: 1 2 3 4 5 6 7 8 9 10 11 12 13 14 15 16 17 18 19 20 21 22 23 24 25 26 27 28 29 30
000
FTUS41 KOKX 271400 AAA
TAFLGA
TAF AMD
KLGA 271435Z 2715/2812 33009KT P6SM -SHSN BKN015 BKN040
     FM271800 33009KT P6SM -SHSNRA BKN015 BKN040
     FM272000 33009KT P6SM SCT015 BKN040
     FM280500 32010KT P6SM BKN080=

USA.gov is the U.S. government's official web portal to all federal, state and local government web resources and services.